Time;durP1;ratioP1;P1;durP2;ratioP2;P2;SDS_P1;SDS_P2;PMS_P1;PMS_P2;Temp;Humidity;BMP_temperature;BMP_pressure;BME280_temperature;BME280_humidity;BME280_pressure;Samples;Min_cycle;Max_cycle;Signal;HPM_P1;HPM_P2
2021/04/16 00:02:16;;;;;;;3.30;1.70;;;6.30;50.40;;;;;;5133029;27;20026;-73
2021/04/16 00:04:42;;;;;;;4.75;1.95;;;6.30;50.30;;;;;;5133031;27;20462;-74
2021/04/16 00:07:08;;;;;;;2.42;1.50;;;6.30;50.90;;;;;;5119144;27;20112;-73
2021/04/16 00:09:33;;;;;;;3.08;1.88;;;6.30;50.30;;;;;;5112432;28;20358;-73
2021/04/16 00:11:59;;;;;;;2.78;1.58;;;6.20;50.20;;;;;;5111588;28;20024;-74
2021/04/16 00:14:25;;;;;;;8.68;2.38;;;6.20;50.20;;;;;;5112493;28;20481;-74
2021/04/16 00:16:51;;;;;;;4.43;2.13;;;6.20;50.50;;;;;;5112415;28;20028;-75
2021/04/16 00:19:17;;;;;;;3.08;1.65;;;6.20;50.80;;;;;;5111358;28;20034;-75
2021/04/16 00:21:43;;;;;;;2.83;1.80;;;6.10;50.80;;;;;;5112714;28;20028;-75
2021/04/16 00:24:12;;;;;;;2.53;1.77;;;6.10;50.70;;;;;;5112408;28;20020;-74
2021/04/16 00:26:41;;;;;;;3.80;2.15;;;6.10;50.80;;;;;;5112317;28;20489;-74
2021/04/16 00:29:07;;;;;;;3.20;1.67;;;6.10;51.00;;;;;;5122036;28;20031;-74
2021/04/16 00:31:34;;;;;;;1.67;1.38;;;6.10;51.30;;;;;;5131181;27;20023;-74
2021/04/16 00:34:00;;;;;;;3.63;1.50;;;6.10;50.70;;;;;;5132353;27;20039;-75
2021/04/16 00:36:28;;;;;;;4.40;1.90;;;6.10;50.60;;;;;;5131509;28;20027;-74
2021/04/16 00:38:53;;;;;;;3.00;1.73;;;6.00;50.60;;;;;;5132726;27;20035;-74
2021/04/16 00:41:23;;;;;;;5.18;2.22;;;6.00;50.50;;;;;;5122829;28;20020;-74
2021/04/16 00:43:49;;;;;;;5.32;2.22;;;6.00;50.60;;;;;;5112148;28;20026;-73
2021/04/16 00:46:38;;;;;;;2.55;1.75;;;5.90;50.70;;;;;;5112116;28;20024;-75
2021/04/16 00:49:06;;;;;;;2.88;1.80;;;5.90;50.80;;;;;;5104234;28;20040;-74
2021/04/16 00:51:42;;;;;;;2.92;1.60;;;5.90;51.30;;;;;;5111145;28;20127;-76
2021/04/16 00:54:17;;;;;;;3.78;2.25;;;5.90;51.50;;;;;;5136514;27;20038;-75
2021/04/16 00:56:43;;;;;;;3.03;1.90;;;5.90;51.90;;;;;;5136611;27;20019;-75
2021/04/16 00:59:10;;;;;;;3.22;2.10;;;5.90;51.70;;;;;;5132419;27;20023;-74
2021/04/16 01:01:36;;;;;;;4.22;2.60;;;5.90;51.80;;;;;;5137315;27;20084;-74
2021/04/16 01:04:02;;;;;;;3.13;1.70;;;5.90;51.90;;;;;;5132352;27;20031;-74
2021/04/16 01:06:28;;;;;;;3.90;2.40;;;5.90;51.80;;;;;;5133204;27;20110;-74
2021/04/16 01:08:54;;;;;;;3.63;2.50;;;5.90;51.90;;;;;;5111853;28;20115;-73
2021/04/16 01:11:20;;;;;;;4.43;2.20;;;5.80;52.00;;;;;;5110258;28;20036;-73
2021/04/16 01:13:47;;;;;;;13.07;2.75;;;5.80;51.90;;;;;;5123041;27;20056;-73
2021/04/16 01:16:16;;;;;;;4.32;2.40;;;5.80;52.10;;;;;;5135273;27;20020;-74
2021/04/16 01:18:46;;;;;;;3.13;2.05;;;5.70;52.20;;;;;;5133099;27;20047;-74
2021/04/16 01:21:15;;;;;;;4.93;1.85;;;5.70;52.60;;;;;;5129054;28;20376;-74
2021/04/16 01:24:05;;;;;;;2.63;2.08;;;5.60;52.40;;;;;;5136199;27;20023;-74
2021/04/16 01:26:36;;;;;;;6.28;2.47;;;5.60;52.60;;;;;;5133230;27;20024;-74
2021/04/16 01:29:02;;;;;;;4.35;1.88;;;5.60;52.50;;;;;;5142438;27;20034;-74
2021/04/16 01:31:29;;;;;;;4.65;2.25;;;5.50;52.60;;;;;;5140453;27;20092;-74
2021/04/16 01:33:55;;;;;;;3.83;2.22;;;5.50;53.00;;;;;;5115990;27;20392;-73
2021/04/16 01:36:34;;;;;;;5.47;3.45;;;5.50;53.10;;;;;;5135506;27;20023;-74
2021/04/16 01:39:04;;;;;;;6.45;2.90;;;5.40;53.10;;;;;;5115185;28;20076;-73
2021/04/16 01:41:31;;;;;;;4.60;2.20;;;5.40;53.60;;;;;;5126520;27;20039;-74
2021/04/16 01:44:12;;;;;;;2.78;2.20;;;5.40;52.80;;;;;;5135348;27;20027;-74
2021/04/16 01:46:54;;;;;;;2.65;1.75;;;5.30;53.00;;;;;;5135766;27;20046;-74
2021/04/16 01:49:21;;;;;;;6.22;3.25;;;5.30;52.80;;;;;;5135130;27;20472;-73
2021/04/16 01:51:47;;;;;;;2.63;1.83;;;5.30;52.90;;;;;;5134238;27;20104;-74
2021/04/16 01:54:22;;;;;;;7.05;2.72;;;5.20;52.90;;;;;;5135409;27;20019;-74
2021/04/16 01:56:55;;;;;;;5.00;2.47;;;5.20;53.20;;;;;;5135454;27;20487;-74
2021/04/16 01:59:28;;;;;;;3.58;2.20;;;5.20;53.20;;;;;;5134833;27;20059;-74
2021/04/16 02:01:53;;;;;;;4.22;2.60;;;5.20;53.40;;;;;;5119532;27;20028;-74
2021/04/16 02:04:20;;;;;;;5.28;2.63;;;5.20;53.30;;;;;;5115455;28;20073;-74
2021/04/16 02:06:46;;;;;;;2.97;1.83;;;5.20;53.20;;;;;;5126032;27;20019;-75
2021/04/16 02:09:16;;;;;;;7.03;2.45;;;5.10;53.10;;;;;;5135743;27;20096;-73
2021/04/16 02:11:43;;;;;;;4.13;2.35;;;5.10;53.20;;;;;;5133095;27;20019;-74
2021/04/16 02:14:14;;;;;;;3.10;2.10;;;5.10;53.20;;;;;;5135829;27;20023;-74
2021/04/16 02:16:44;;;;;;;2.90;1.77;;;5.10;53.20;;;;;;5136004;27;20437;-74
2021/04/16 02:19:12;;;;;;;2.90;1.85;;;5.00;53.70;;;;;;5135825;27;20019;-73
2021/04/16 02:21:38;;;;;;;2.88;2.15;;;5.00;53.10;;;;;;5123988;27;20050;-73
2021/04/16 02:24:05;;;;;;;5.55;2.80;;;4.90;53.60;;;;;;5141698;27;20022;-74
2021/04/16 02:26:32;;;;;;;4.28;2.88;;;5.00;54.00;;;;;;5156648;27;20078;-74
2021/04/16 02:28:58;;;;;;;4.50;2.60;;;5.00;54.30;;;;;;5156580;27;20054;-73
2021/04/16 02:31:24;;;;;;;4.20;2.30;;;4.90;54.20;;;;;;5121379;27;20477;-73
2021/04/16 02:33:50;;;;;;;4.22;2.55;;;4.90;54.30;;;;;;5130192;27;20031;-74
2021/04/16 02:36:16;;;;;;;5.10;2.38;;;4.90;54.20;;;;;;5113803;28;20015;-75
2021/04/16 02:38:42;;;;;;;5.03;2.25;;;4.90;54.10;;;;;;5126983;27;20023;-73
2021/04/16 02:41:08;;;;;;;3.28;2.28;;;4.90;54.10;;;;;;5140145;27;20023;-74
2021/04/16 02:43:34;;;;;;;5.28;2.38;;;4.90;54.10;;;;;;5152612;27;20084;-73
2021/04/16 02:46:01;;;;;;;7.65;2.42;;;4.80;53.90;;;;;;5154800;27;20099;-74
2021/04/16 02:48:27;;;;;;;3.17;2.22;;;4.80;54.00;;;;;;5156005;27;20080;-74
2021/04/16 02:50:52;;;;;;;4.57;2.80;;;4.80;53.90;;;;;;5150912;27;20047;-73
2021/04/16 02:53:18;;;;;;;6.25;2.95;;;4.80;54.10;;;;;;5114550;28;20106;-74
2021/04/16 02:55:44;;;;;;;4.38;2.85;;;4.80;54.20;;;;;;5114689;28;21181;-74
2021/04/16 02:58:10;;;;;;;3.33;2.60;;;4.80;54.30;;;;;;5130421;27;20101;-73
2021/04/16 03:00:36;;;;;;;5.25;2.50;;;4.70;54.50;;;;;;5131045;27;20023;-74
2021/04/16 03:03:02;;;;;;;4.82;2.90;;;4.70;54.50;;;;;;5114516;27;20481;-73
2021/04/16 03:05:28;;;;;;;5.15;3.15;;;4.70;54.70;;;;;;5114347;28;20422;-73
2021/04/16 03:07:56;;;;;;;9.70;3.25;;;4.70;55.10;;;;;;5116619;27;20038;-74
2021/04/16 03:10:25;;;;;;;6.88;3.35;;;4.60;55.50;;;;;;5134460;27;20488;-73
2021/04/16 03:12:51;;;;;;;7.28;3.15;;;4.60;55.80;;;;;;5116356;27;20035;-74
2021/04/16 03:15:18;;;;;;;5.07;3.38;;;4.60;56.00;;;;;;5114108;28;20020;-73
2021/04/16 03:17:44;;;;;;;4.70;3.10;;;4.60;56.10;;;;;;5114143;28;20372;-75
2021/04/16 03:20:11;;;;;;;8.38;3.75;;;4.60;56.10;;;;;;5123487;27;20475;-73
2021/04/16 03:22:37;;;;;;;9.50;3.40;;;4.60;56.20;;;;;;5133265;27;20019;-74
2021/04/16 03:25:05;;;;;;;6.28;3.33;;;4.60;56.40;;;;;;5133270;27;20483;-74
2021/04/16 03:27:30;;;;;;;7.70;3.67;;;4.50;56.40;;;;;;5134370;27;20057;-75
2021/04/16 03:29:56;;;;;;;5.03;3.42;;;4.50;56.50;;;;;;5122443;27;20045;-74
2021/04/16 03:32:22;;;;;;;4.80;3.40;;;4.50;56.60;;;;;;5130079;27;20111;-74
2021/04/16 03:34:48;;;;;;;7.15;3.70;;;4.50;56.60;;;;;;5133298;27;20019;-73
2021/04/16 03:37:14;;;;;;;7.97;3.30;;;4.50;56.60;;;;;;5134626;27;20026;-74
2021/04/16 03:39:39;;;;;;;5.32;3.10;;;4.50;56.70;;;;;;5130765;27;20020;-74
2021/04/16 03:42:06;;;;;;;4.00;2.90;;;4.50;56.50;;;;;;5142722;27;20484;-74
2021/04/16 03:44:32;;;;;;;6.43;3.30;;;4.50;56.30;;;;;;5134497;27;20383;-75
2021/04/16 03:46:58;;;;;;;6.20;3.58;;;4.50;56.20;;;;;;5136330;27;20027;-73
2021/04/16 03:49:24;;;;;;;6.10;3.38;;;4.50;56.10;;;;;;5137685;27;20044;-73
2021/04/16 03:51:57;;;;;;;5.30;3.80;;;4.50;56.10;;;;;;5143174;27;20030;-73
2021/04/16 03:54:23;;;;;;;6.45;3.63;;;4.50;56.30;;;;;;5143875;27;20034;-73
2021/04/16 03:56:50;;;;;;;7.07;3.60;;;4.50;56.30;;;;;;5144695;27;20019;-72
2021/04/16 03:59:17;;;;;;;6.60;3.95;;;4.50;56.20;;;;;;5134359;27;20037;-74
2021/04/16 04:01:43;;;;;;;5.60;3.20;;;4.50;56.00;;;;;;5111916;28;20032;-73
2021/04/16 04:04:09;;;;;;;8.00;3.80;;;4.50;56.00;;;;;;5113306;28;20042;-74
2021/04/16 04:06:35;;;;;;;6.00;3.38;;;4.50;56.10;;;;;;5112033;28;20111;-74
2021/04/16 04:09:01;;;;;;;5.20;3.15;;;4.50;56.30;;;;;;5114925;27;20862;-73
2021/04/16 04:11:27;;;;;;;5.00;3.30;;;4.50;56.20;;;;;;5129996;27;20026;-74
2021/04/16 04:13:54;;;;;;;4.05;2.72;;;4.50;56.10;;;;;;5133335;27;20027;-73
2021/04/16 04:16:20;;;;;;;3.88;3.22;;;4.50;56.00;;;;;;5133679;27;20090;-74
2021/04/16 04:18:46;;;;;;;5.80;3.20;;;4.50;55.90;;;;;;5132235;27;20109;-73
2021/04/16 04:21:12;;;;;;;6.93;3.70;;;4.50;56.00;;;;;;5149454;27;20027;-73
2021/04/16 04:23:37;;;;;;;5.68;3.53;;;4.50;56.20;;;;;;5154269;27;20101;-73
2021/04/16 04:26:03;;;;;;;5.32;3.42;;;4.50;56.50;;;;;;5152988;27;20052;-73
2021/04/16 04:28:29;;;;;;;6.05;3.70;;;4.50;56.50;;;;;;5132896;27;20027;-74
2021/04/16 04:30:55;;;;;;;4.55;2.97;;;4.50;56.60;;;;;;5131649;27;20030;-74
2021/04/16 04:33:22;;;;;;;6.05;3.20;;;4.50;56.40;;;;;;5131932;28;20019;-74
2021/04/16 04:35:47;;;;;;;6.18;3.38;;;4.50;56.30;;;;;;5133595;27;20465;-74
2021/04/16 04:38:13;;;;;;;6.45;3.65;;;4.60;56.20;;;;;;5133494;27;20038;-73
2021/04/16 04:40:39;;;;;;;5.18;3.63;;;4.50;56.10;;;;;;5122598;27;20406;-75
2021/04/16 04:43:06;;;;;;;4.65;3.13;;;4.60;56.30;;;;;;5132545;28;20051;-74
2021/04/16 04:45:31;;;;;;;10.52;3.88;;;4.60;56.30;;;;;;5136272;27;20038;-74
2021/04/16 04:47:57;;;;;;;5.15;3.40;;;4.50;56.50;;;;;;5154066;27;20026;-74
2021/04/16 04:50:25;;;;;;;3.70;2.95;;;4.50;56.70;;;;;;5153915;27;20081;-74
2021/04/16 04:52:53;;;;;;;4.22;3.15;;;4.60;57.00;;;;;;5139459;27;20023;-74
2021/04/16 04:55:27;;;;;;;5.40;3.65;;;4.60;57.00;;;;;;5132034;28;20044;-74
2021/04/16 04:57:53;;;;;;;6.82;3.53;;;4.60;57.00;;;;;;5135340;27;20102;-73
2021/04/16 05:00:20;;;;;;;4.38;3.28;;;4.70;57.00;;;;;;5137236;27;20023;-74
2021/04/16 05:02:46;;;;;;;7.20;3.70;;;4.80;56.90;;;;;;5136068;27;20034;-73
2021/04/16 05:05:13;;;;;;;7.68;3.42;;;4.80;56.70;;;;;;5124517;27;20032;-73
2021/04/16 05:07:39;;;;;;;7.28;3.50;;;4.80;56.40;;;;;;5142099;27;20095;-74
2021/04/16 05:10:07;;;;;;;7.40;4.05;;;4.90;56.30;;;;;;5157879;27;20467;-74
2021/04/16 05:12:33;;;;;;;5.45;3.80;;;4.90;56.20;;;;;;5142508;27;20034;-74
2021/04/16 05:14:59;;;;;;;6.43;4.35;;;5.00;56.20;;;;;;5137008;27;20019;-74
2021/04/16 05:17:25;;;;;;;8.73;3.70;;;5.00;56.00;;;;;;5136674;27;20415;-75
2021/04/16 05:19:51;;;;;;;7.15;3.53;;;5.00;56.00;;;;;;5136936;27;20058;-73
2021/04/16 05:22:17;;;;;;;7.30;4.40;;;5.00;56.10;;;;;;5136965;27;20139;-74
2021/04/16 05:24:42;;;;;;;4.30;3.13;;;5.10;56.10;;;;;;5136827;27;20124;-73
2021/04/16 05:27:12;;;;;;;7.32;3.45;;;5.10;56.10;;;;;;5136792;27;20079;-74
2021/04/16 05:29:39;;;;;;;3.58;2.95;;;5.10;56.10;;;;;;5135932;27;20027;-73
2021/04/16 05:32:05;;;;;;;5.38;3.88;;;5.20;56.10;;;;;;5157426;27;20463;-74
2021/04/16 05:34:32;;;;;;;6.03;4.03;;;5.20;56.10;;;;;;5157307;27;20023;-75
2021/04/16 05:36:58;;;;;;;5.72;3.78;;;5.30;56.00;;;;;;5156109;27;20015;-73
2021/04/16 05:39:24;;;;;;;4.32;3.13;;;5.30;55.90;;;;;;5149929;27;20114;-74
2021/04/16 05:41:50;;;;;;;6.78;3.70;;;5.40;55.80;;;;;;5134937;27;20098;-73
2021/04/16 05:44:17;;;;;;;4.72;3.47;;;5.50;55.90;;;;;;5135673;27;20023;-75
2021/04/16 05:46:42;;;;;;;6.43;3.83;;;5.50;55.80;;;;;;5136359;27;20415;-75
2021/04/16 05:49:08;;;;;;;8.05;3.72;;;5.60;55.80;;;;;;5152939;27;20022;-74
2021/04/16 05:51:35;;;;;;;7.15;3.35;;;5.60;55.70;;;;;;5155967;27;20468;-73
2021/04/16 05:54:01;;;;;;;14.77;3.38;;;5.70;55.60;;;;;;5157066;27;20023;-73
2021/04/16 05:56:27;;;;;;;5.47;3.47;;;5.70;55.40;;;;;;5115682;27;20024;-74
2021/04/16 05:58:53;;;;;;;7.18;3.45;;;5.80;55.40;;;;;;5144183;27;20055;-73
2021/04/16 06:01:18;;;;;;;7.55;3.80;;;5.90;55.30;;;;;;5155924;27;20026;-74
2021/04/16 06:03:46;;;;;;;4.82;3.10;;;6.00;55.10;;;;;;5156105;27;20051;-74
2021/04/16 06:06:13;;;;;;;11.25;3.47;;;6.00;55.10;;;;;;5156713;27;20025;-74
2021/04/16 06:08:40;;;;;;;8.75;3.70;;;6.10;55.10;;;;;;5117990;27;20032;-73
2021/04/16 06:11:06;;;;;;;4.82;3.60;;;6.10;54.90;;;;;;5115550;27;20023;-73
2021/04/16 06:13:33;;;;;;;10.13;3.58;;;6.10;54.80;;;;;;5135781;27;20019;-74
2021/04/16 06:16:01;;;;;;;4.45;3.40;;;6.20;54.60;;;;;;5135906;27;20380;-75
2021/04/16 06:18:27;;;;;;;4.53;3.42;;;6.30;54.60;;;;;;5135924;27;20022;-73
2021/04/16 06:20:52;;;;;;;4.25;3.13;;;6.40;54.60;;;;;;5133381;27;20516;-73
2021/04/16 06:23:18;;;;;;;10.00;3.30;;;6.40;54.40;;;;;;5134595;27;20539;-74
2021/04/16 06:25:44;;;;;;;4.43;3.40;;;6.50;54.10;;;;;;5134354;27;20034;-74
2021/04/16 06:28:13;;;;;;;7.88;3.38;;;6.60;53.80;;;;;;5135606;27;20058;-75
2021/04/16 06:30:40;;;;;;;9.52;3.97;;;6.60;53.40;;;;;;5135945;27;20031;-75
2021/04/16 06:33:24;;;;;;;7.10;4.03;;;6.60;53.10;;;;;;5135332;27;20059;-73
2021/04/16 06:36:00;;;;;;;6.30;3.65;;;6.70;53.00;;;;;;5114887;28;20015;-74
2021/04/16 06:38:31;;;;;;;5.10;3.65;;;6.70;52.50;;;;;;5114788;28;20491;-74
2021/04/16 06:40:59;;;;;;;6.60;3.53;;;6.80;52.40;;;;;;5114973;27;20015;-74
2021/04/16 06:43:30;;;;;;;4.32;3.60;;;6.90;52.50;;;;;;5133961;27;20019;-74
2021/04/16 06:45:59;;;;;;;5.47;3.50;;;6.90;52.40;;;;;;5120468;27;20020;-73
2021/04/16 06:48:25;;;;;;;7.20;3.83;;;7.00;52.40;;;;;;5114753;28;20507;-74
2021/04/16 06:50:57;;;;;;;8.63;3.65;;;7.00;51.90;;;;;;5114292;28;20048;-74
2021/04/16 06:53:39;;;;;;;5.68;4.22;;;7.10;51.50;;;;;;5115885;28;20103;-74
2021/04/16 06:56:16;;;;;;;4.78;3.35;;;7.10;51.10;;;;;;5113466;28;20099;-73
2021/04/16 06:59:08;;;;;;;11.88;3.40;;;7.20;51.20;;;;;;5127724;27;20026;-74
2021/04/16 07:01:49;;;;;;;4.53;3.65;;;7.20;50.60;;;;;;5134997;27;20361;-74
2021/04/16 07:04:39;;;;;;;8.02;3.60;;;7.30;50.50;;;;;;5134773;27;20072;-74
2021/04/16 07:07:23;;;;;;;4.65;3.40;;;7.40;50.40;;;;;;5147191;27;20026;-73
2021/04/16 07:09:53;;;;;;;4.93;3.72;;;7.40;50.20;;;;;;5124002;27;20530;-73
2021/04/16 07:12:21;;;;;;;8.48;4.13;;;7.50;50.10;;;;;;5125653;27;20472;-74
2021/04/16 07:14:55;;;;;;;8.02;3.55;;;7.50;50.10;;;;;;5128255;27;20067;-74
2021/04/16 07:17:23;;;;;;;;;;;7.60;49.90;;;;;;5113219;28;20024;-75
2021/04/16 07:19:51;;;;;;;9.57;3.58;;;7.70;50.40;;;;;;5120835;27;20284;-73
2021/04/16 07:22:31;;;;;;;4.82;3.42;;;7.80;50.30;;;;;;5116851;27;20051;-74
2021/04/16 07:24:58;;;;;;;5.03;3.15;;;7.90;49.30;;;;;;5145115;27;20029;-73
2021/04/16 07:27:46;;;;;;;3.95;2.78;;;8.00;49.30;;;;;;5132917;27;20034;-75
2021/04/16 07:30:49;;;;;;;6.82;3.20;;;8.10;49.10;;;;;;5144440;27;20472;-74
2021/04/16 07:33:44;;;;;;;3.55;3.03;;;8.30;48.80;;;;;;5084950;28;20060;-74
2021/04/16 07:36:29;;;;;;;;;;;8.50;48.30;;;;;;5009030;28;20096;-75
2021/04/16 07:39:06;;;;;;;7.05;3.45;;;8.60;49.00;;;;;;5023295;28;19924;-74
2021/04/16 07:41:47;;;;;;;5.63;3.17;;;8.70;47.70;;;;;;5026556;28;20592;-75
2021/04/16 07:44:25;;;;;;;5.40;3.20;;;8.90;47.00;;;;;;5030569;28;20057;-74
2021/04/16 07:46:57;;;;;;;6.45;3.22;;;9.00;46.80;;;;;;5019730;28;20070;-75
2021/04/16 07:49:29;;;;;;;5.30;2.88;;;9.20;46.50;;;;;;5030641;28;20181;-75
2021/04/16 07:52:00;;;;;;;4.25;3.53;;;9.40;46.30;;;;;;5012292;28;20549;-74
2021/04/16 07:54:29;;;;;;;6.30;3.38;;;9.60;45.50;;;;;;5027777;28;20037;-75
2021/04/16 07:57:18;;;;;;;11.23;3.42;;;9.80;44.90;;;;;;5030363;28;20025;-76
2021/04/16 08:00:12;;;;;;;5.72;3.78;;;9.90;44.70;;;;;;5022227;28;20065;-76
2021/04/16 08:02:51;;;;;;;10.60;4.00;;;10.10;44.60;;;;;;5020403;28;20037;-75
2021/04/16 08:05:26;;;;;;;9.90;4.32;;;10.30;44.00;;;;;;5030703;28;20112;-74
2021/04/16 08:08:12;;;;;;;6.10;3.78;;;10.50;44.00;;;;;;5039404;28;20162;-74
2021/04/16 08:10:39;;;;;;;8.73;3.40;;;10.60;43.40;;;;;;5050662;28;20103;-75
2021/04/16 08:13:13;;;;;;;5.93;3.53;;;10.70;42.70;;;;;;5104602;27;20066;-75
2021/04/16 08:15:40;;;;;;;;;;;10.80;42.40;;;;;;5114066;28;20018;-76
2021/04/16 08:18:11;;;;;;;6.53;3.15;;;10.90;44.10;;;;;;5113522;28;20273;-77
2021/04/16 08:20:57;;;;;;;10.35;4.80;;;11.00;41.90;;;;;;5114437;28;20483;-76
2021/04/16 08:23:26;;;;;;;9.02;5.15;;;11.20;42.40;;;;;;5117889;27;20085;-75
2021/04/16 08:25:56;;;;;;;9.02;4.63;;;11.30;41.70;;;;;;5112185;28;20027;-75
2021/04/16 08:28:59;;;;;;;5.70;3.45;;;11.40;41.50;;;;;;5132200;28;20023;-76
2021/04/16 08:31:32;;;;;;;4.57;3.50;;;11.50;40.90;;;;;;5115713;27;20104;-70
2021/04/16 08:34:07;;;;;;;4.30;3.33;;;11.60;40.70;;;;;;5121763;27;20042;-68
2021/04/16 08:36:42;;;;;;;5.55;3.35;;;11.80;40.90;;;;;;5126687;27;20044;-76
2021/04/16 08:39:28;;;;;;;;;;;11.90;40.10;;;;;;5116169;27;20024;-76
2021/04/16 08:42:04;;;;;;;4.95;3.10;;;11.90;41.50;;;;;;5127588;27;19915;-68
2021/04/16 08:44:38;;;;;;;9.10;3.20;;;12.00;40.20;;;;;;5133189;27;20023;-73
2021/04/16 08:47:11;;;;;;;6.18;2.85;;;12.20;40.20;;;;;;5128296;27;20384;-75
2021/04/16 08:49:37;;;;;;;4.07;2.35;;;12.30;39.70;;;;;;5137828;27;20035;-71
2021/04/16 08:52:16;;;;;;;4.20;2.40;;;12.40;39.90;;;;;;5137601;27;20380;-71
2021/04/16 08:54:44;;;;;;;4.60;3.13;;;12.60;40.50;;;;;;5122002;27;20070;-70
2021/04/16 08:57:31;;;;;;;4.97;3.10;;;12.80;39.80;;;;;;5137782;27;20019;-70
2021/04/16 09:00:28;;;;;;;3.45;2.65;;;12.90;39.40;;;;;;5135916;27;20147;-75
2021/04/16 09:02:56;;;;;;;3.40;2.90;;;13.10;39.50;;;;;;5126292;27;20031;-71
2021/04/16 09:05:47;;;;;;;3.75;2.42;;;13.30;38.80;;;;;;5130649;27;20028;-70
2021/04/16 09:08:38;;;;;;;3.40;2.72;;;13.40;38.70;;;;;;5130400;27;20027;-69
2021/04/16 09:11:05;;;;;;;9.07;2.85;;;13.60;38.20;;;;;;5117030;28;20024;-70
2021/04/16 09:13:41;;;;;;;3.95;2.45;;;13.70;38.20;;;;;;5130508;27;20122;-72
2021/04/16 09:16:15;;;;;;;5.70;2.53;;;13.80;37.80;;;;;;5137190;27;20023;-73
2021/04/16 09:18:43;;;;;;;3.70;2.90;;;14.00;37.30;;;;;;5125739;27;20084;-68
2021/04/16 09:21:15;;;;;;;4.97;3.20;;;14.00;36.90;;;;;;5127511;27;20028;-69
2021/04/16 09:23:40;;;;;;;3.80;2.70;;;14.10;36.90;;;;;;5136495;27;20092;-70
2021/04/16 09:26:08;;;;;;;3.47;2.58;;;14.20;36.10;;;;;;5126291;27;20023;-74
2021/04/16 09:28:49;;;;;;;5.38;3.10;;;14.30;35.90;;;;;;5116564;28;20106;-76
2021/04/16 09:31:24;;;;;;;3.90;2.50;;;14.30;35.30;;;;;;5128042;27;20019;-69
2021/04/16 09:34:19;;;;;;;7.22;3.13;;;14.40;35.00;;;;;;5136589;27;20055;-71
2021/04/16 09:37:10;;;;;;;3.40;3.08;;;14.40;36.00;;;;;;5116538;28;20476;-76
2021/04/16 09:39:39;;;;;;;4.38;2.50;;;14.50;34.70;;;;;;5114606;28;20042;-67
2021/04/16 09:42:33;;;;;;;3.65;2.28;;;14.50;34.50;;;;;;5116552;27;20024;-69
2021/04/16 09:44:59;;;;;;;4.07;2.92;;;14.50;34.50;;;;;;5116380;28;20444;-72
2021/04/16 09:47:52;;;;;;;6.95;2.83;;;14.60;34.40;;;;;;5116316;28;20016;-73
2021/04/16 09:50:27;;;;;;;3.40;1.90;;;14.70;33.80;;;;;;5116314;28;20036;-67
2021/04/16 09:53:20;;;;;;;3.83;2.63;;;14.80;34.40;;;;;;5117339;27;20031;-71
2021/04/16 09:55:58;;;;;;;3.35;2.60;;;14.90;33.90;;;;;;5132680;27;20034;-70
2021/04/16 09:58:30;;;;;;;3.22;2.35;;;15.00;32.40;;;;;;5136386;27;20058;-68
2021/04/16 10:00:56;;;;;;;3.30;2.10;;;15.10;32.40;;;;;;5135251;27;20015;-73
2021/04/16 10:03:45;;;;;;;2.47;1.83;;;15.10;32.20;;;;;;5135995;27;20023;-68
2021/04/16 10:06:29;;;;;;;3.03;2.20;;;15.10;31.00;;;;;;5115714;28;20038;-72
2021/04/16 10:09:26;;;;;;;3.78;2.10;;;15.20;31.20;;;;;;5115304;28;20026;-70
2021/04/16 10:12:12;;;;;;;2.65;2.10;;;15.30;31.70;;;;;;5115495;27;20031;-69
2021/04/16 10:14:39;;;;;;;2.53;2.15;;;15.40;31.40;;;;;;5115559;28;20024;-77
2021/04/16 10:17:11;;;;;;;2.22;2.03;;;15.40;31.10;;;;;;5117735;27;20027;-70
2021/04/16 10:19:39;;;;;;;2.53;2.20;;;15.60;31.50;;;;;;5127764;27;20068;-67
2021/04/16 10:22:16;;;;;;;4.18;2.10;;;15.70;31.40;;;;;;5126704;27;20022;-76
2021/04/16 11:01:45;;;;;;;3.38;2.22;;;16.60;30.30;;;;;;5092050;28;20128;-65
2021/04/16 12:38:40;;;;;;;3.85;2.80;;;18.20;26.20;;;;;;5134031;28;20046;-69
2021/04/16 12:41:11;;;;;;;3.35;2.40;;;18.10;26.30;;;;;;5133662;27;20475;-69
2021/04/16 12:43:37;;;;;;;6.50;2.63;;;18.00;26.50;;;;;;5133848;27;20076;-69
2021/04/16 12:46:06;;;;;;;3.20;2.50;;;17.90;26.40;;;;;;5133714;27;20019;-69
2021/04/16 12:48:31;;;;;;;2.90;2.55;;;17.80;26.60;;;;;;5133552;27;20031;-69
2021/04/16 12:50:57;;;;;;;3.60;2.72;;;17.70;26.70;;;;;;5133253;27;20054;-69
2021/04/16 12:53:24;;;;;;;2.85;1.95;;;17.70;26.60;;;;;;5133709;27;20537;-69
2021/04/16 12:55:50;;;;;;;3.10;2.60;;;17.60;27.00;;;;;;5134622;27;20026;-69
2021/04/16 12:58:31;;;;;;;3.67;2.28;;;17.50;27.10;;;;;;5145000;27;20488;-69
2021/04/16 13:01:01;;;;;;;5.93;3.80;;;17.50;27.10;;;;;;5130214;27;20027;-68
2021/04/16 13:03:33;;;;;;;4.72;2.97;;;17.50;26.90;;;;;;5145453;27;20042;-69
2021/04/16 13:05:59;;;;;;;5.50;3.20;;;17.40;27.00;;;;;;5132937;27;20050;-69
2021/04/16 13:08:25;;;;;;;4.60;2.83;;;17.30;27.20;;;;;;5133215;27;20100;-69
2021/04/16 13:10:51;;;;;;;3.20;2.30;;;17.30;27.30;;;;;;5122756;27;20026;-69
2021/04/16 13:13:17;;;;;;;6.13;2.60;;;17.30;27.30;;;;;;5112632;28;20144;-69
2021/04/16 13:15:43;;;;;;;3.95;2.90;;;17.30;27.20;;;;;;5142481;27;20109;-69
2021/04/16 13:18:35;;;;;;;9.02;3.67;;;17.20;27.30;;;;;;5134402;27;20371;-68
2021/04/16 13:21:04;;;;;;;5.00;2.70;;;17.20;27.20;;;;;;5133369;27;20473;-69
2021/04/16 13:23:30;;;;;;;6.82;2.95;;;17.10;27.00;;;;;;5135740;27;20027;-69
2021/04/16 13:25:56;;;;;;;4.30;2.50;;;17.10;27.20;;;;;;5137022;27;20410;-69
2021/04/16 13:28:22;;;;;;;4.03;2.67;;;17.10;27.30;;;;;;5136939;27;20055;-68
2021/04/16 13:30:48;;;;;;;3.10;2.70;;;17.20;27.30;;;;;;5125949;27;20244;-68
2021/04/16 13:33:17;;;;;;;3.88;2.75;;;17.20;27.10;;;;;;5116265;28;20032;-69
2021/04/16 13:35:54;;;;;;;2.97;2.33;;;17.20;27.00;;;;;;5132841;27;20023;-69
2021/04/16 13:38:25;;;;;;;4.80;2.83;;;17.30;27.00;;;;;;5137082;27;20026;-69
2021/04/16 13:40:53;;;;;;;2.60;2.10;;;17.20;26.60;;;;;;5136026;27;20047;-69
2021/04/16 13:43:20;;;;;;;3.05;2.20;;;17.30;27.10;;;;;;5136741;27;20375;-68
2021/04/16 13:45:46;;;;;;;3.08;1.92;;;17.30;27.30;;;;;;5136793;27;20019;-68
2021/04/16 13:48:13;;;;;;;2.42;1.85;;;17.30;27.20;;;;;;5136676;27;20072;-69
2021/04/16 13:50:39;;;;;;;11.32;2.70;;;17.40;27.20;;;;;;5128208;27;20051;-69
2021/04/16 13:53:05;;;;;;;2.28;1.73;;;17.40;27.10;;;;;;5116006;28;20028;-69
2021/04/16 13:55:32;;;;;;;2.05;1.83;;;17.40;26.90;;;;;;5148552;27;20091;-69
2021/04/16 13:57:58;;;;;;;2.45;2.15;;;17.30;26.70;;;;;;5149159;27;20059;-69
2021/04/16 14:00:28;;;;;;;2.85;2.40;;;17.30;26.90;;;;;;5131269;27;20019;-69
2021/04/16 14:02:58;;;;;;;3.88;3.00;;;17.30;26.70;;;;;;5135047;27;20027;-69
2021/04/16 14:05:27;;;;;;;2.42;2.22;;;17.30;26.80;;;;;;5131429;27;20392;-69
2021/04/16 14:07:54;;;;;;;2.22;2.03;;;17.30;26.80;;;;;;5132406;27;20038;-69
2021/04/16 14:10:24;;;;;;;3.33;2.38;;;17.30;27.00;;;;;;5140293;27;20466;-69
2021/04/16 14:12:51;;;;;;;3.17;2.35;;;17.30;26.50;;;;;;5140734;27;20047;-66
2021/04/16 14:15:18;;;;;;;3.65;2.30;;;17.30;26.80;;;;;;5135775;27;20140;-66
2021/04/16 14:17:47;;;;;;;3.25;2.33;;;17.20;26.90;;;;;;5135730;27;20031;-66
2021/04/16 14:20:28;;;;;;;3.40;2.50;;;17.20;26.90;;;;;;5135970;27;20372;-66
2021/04/16 14:22:56;;;;;;;3.03;2.20;;;17.20;27.00;;;;;;5133694;27;20035;-66
2021/04/16 14:25:32;;;;;;;4.03;2.58;;;17.20;26.90;;;;;;5135789;27;20027;-66
2021/04/16 14:27:59;;;;;;;4.15;2.20;;;17.10;26.90;;;;;;5147880;27;20495;-66
2021/04/16 14:30:28;;;;;;;3.50;2.78;;;17.10;27.10;;;;;;5119897;27;20354;-66
2021/04/16 14:32:56;;;;;;;4.68;2.80;;;17.10;27.10;;;;;;5114992;28;20115;-67
2021/04/16 14:35:25;;;;;;;6.07;2.75;;;17.00;27.10;;;;;;5127682;27;20015;-67
2021/04/16 14:37:51;;;;;;;4.07;2.80;;;17.00;27.10;;;;;;5135357;27;20026;-66
2021/04/16 14:40:18;;;;;;;3.08;2.17;;;16.90;27.20;;;;;;5135628;27;20027;-66
2021/04/16 14:42:44;;;;;;;3.90;3.30;;;16.90;27.30;;;;;;5133295;27;20356;-66
2021/04/16 14:45:16;;;;;;;4.90;2.83;;;16.80;26.90;;;;;;5135234;27;20023;-66
2021/04/16 14:47:42;;;;;;;4.78;2.65;;;16.60;26.90;;;;;;5133853;27;20026;-66
2021/04/16 14:50:10;;;;;;;7.65;2.75;;;16.50;27.80;;;;;;5135000;27;20054;-66
2021/04/16 14:52:37;;;;;;;4.20;2.58;;;16.40;27.30;;;;;;5130456;27;20027;-66
2021/04/16 14:55:07;;;;;;;3.45;2.25;;;16.40;28.10;;;;;;5134938;27;20495;-66
2021/04/16 14:57:38;;;;;;;3.20;2.50;;;16.30;27.80;;;;;;5135240;27;20019;-66
2021/04/16 15:00:13;;;;;;;3.72;2.63;;;16.30;27.40;;;;;;5141832;27;20098;-66
2021/04/16 15:02:39;;;;;;;4.18;2.83;;;16.10;27.40;;;;;;5116021;27;20020;-66
2021/04/16 15:05:06;;;;;;;2.83;2.53;;;16.10;27.60;;;;;;5124141;27;20030;-66
2021/04/16 15:07:38;;;;;;;3.17;2.22;;;16.00;27.70;;;;;;5124507;27;20057;-67
2021/04/16 15:10:09;;;;;;;3.05;2.35;;;16.00;28.00;;;;;;5114309;28;20541;-66
2021/04/16 15:12:41;;;;;;;2.42;2.10;;;16.00;28.20;;;;;;5126984;27;20102;-67
2021/04/16 15:15:11;;;;;;;3.33;2.53;;;16.00;27.90;;;;;;5134791;27;20042;-66
2021/04/16 15:17:37;;;;;;;3.63;2.65;;;15.90;27.90;;;;;;5130977;27;20433;-66
2021/04/16 15:20:03;;;;;;;3.47;2.75;;;15.80;28.00;;;;;;5143679;27;20053;-66
2021/04/16 15:22:31;;;;;;;4.45;3.00;;;15.70;28.00;;;;;;5136012;27;20499;-67